Time;durP1;ratioP1;P1;durP2;ratioP2;P2;SDS_P1;SDS_P2;PMS_P1;PMS_P2;Temp;Humidity;BMP_temperature;BMP_pressure;BME280_temperature;BME280_humidity;BME280_pressure;Samples;Min_cycle;Max_cycle;Signal;HPM_P1;HPM_P2
2022/01/10 00:01:49;;;;;;;17.43;10.77;;;;;;;;;;5031087;28;20220;-83
2022/01/10 00:04:18;;;;;;;20.47;12.70;;;;;;;;;;5030196;28;20358;-83
2022/01/10 00:06:46;;;;;;;20.57;13.37;;;;;;;;;;5034681;28;20229;-83
2022/01/10 00:09:13;;;;;;;23.40;13.90;;;;;;;;;;5031940;28;20207;-83
2022/01/10 00:11:40;;;;;;;23.83;13.40;;;;;;;;;;5030029;28;20283;-83
2022/01/10 00:14:07;;;;;;;23.33;13.47;;;;;;;;;;5030338;28;20645;-83
2022/01/10 00:16:35;;;;;;;25.97;14.63;;;;;;;;;;5040189;28;20227;-83
2022/01/10 00:19:02;;;;;;;22.80;14.50;;;;;;;;;;5034347;28;20307;-83
2022/01/10 00:21:31;;;;;;;24.27;13.87;;;;;;;;;;5029450;28;20240;-83
2022/01/10 00:23:58;;;;;;;25.77;13.57;;;;;;;;;;5030451;28;20232;-83
2022/01/10 00:26:26;;;;;;;19.67;12.20;;;;;;;;;;5029677;28;20669;-83
2022/01/10 00:28:53;;;;;;;32.13;20.73;;;;;;;;;;5056166;28;20850;-83
2022/01/10 00:31:21;;;;;;;39.17;25.57;;;;;;;;;;5091943;28;20690;-82
2022/01/10 00:33:48;;;;;;;31.07;20.00;;;;;;;;;;5092636;28;20197;-83
2022/01/10 00:36:15;;;;;;;24.13;13.67;;;;;;;;;;5092539;28;20285;-83
2022/01/10 00:38:44;;;;;;;26.23;16.53;;;;;;;;;;5092301;28;20315;-83
2022/01/10 00:41:11;;;;;;;27.90;19.33;;;;;;;;;;5091244;28;20225;-83
2022/01/10 00:43:45;;;;;;;33.93;22.13;;;;;;;;;;5101954;28;20260;-83
2022/01/10 00:46:13;;;;;;;29.27;20.63;;;;;;;;;;5091596;28;20712;-83
2022/01/10 00:48:40;;;;;;;20.87;13.20;;;;;;;;;;5091696;28;21023;-83
2022/01/10 00:51:08;;;;;;;21.00;11.23;;;;;;;;;;5092280;28;20281;-83
2022/01/10 00:53:36;;;;;;;20.20;10.70;;;;;;;;;;5092106;28;20218;-82
2022/01/10 00:56:08;;;;;;;18.27;10.47;;;;;;;;;;5091779;28;20246;-83
2022/01/10 00:58:36;;;;;;;16.37;10.53;;;;;;;;;;5095196;28;20237;-83
2022/01/10 01:01:03;;;;;;;16.40;10.43;;;;;;;;;;5092091;28;20199;-83
2022/01/10 01:03:30;;;;;;;16.90;10.63;;;;;;;;;;5093603;28;20247;-83
2022/01/10 01:05:57;;;;;;;15.93;10.50;;;;;;;;;;5091477;28;20745;-83
2022/01/10 01:08:27;;;;;;;15.17;10.70;;;;;;;;;;5091751;28;20189;-83
2022/01/10 01:13:51;;;;;;;41.23;11.63;;;;;;;;;;5097811;28;20234;-83
2022/01/10 01:16:30;;;;;;;17.13;10.90;;;;;;;;;;5076886;28;20198;-83
2022/01/10 01:19:51;;;;;;;23.83;11.57;;;;;;;;;;5092070;28;20284;-83
2022/01/10 01:24:46;;;;;;;17.73;12.00;;;;;;;;;;5091130;28;20318;-83
2022/01/10 01:27:13;;;;;;;49.73;32.90;;;;;;;;;;5091152;28;20202;-83
2022/01/10 01:29:42;;;;;;;59.77;36.30;;;;;;;;;;5090941;28;20793;-83
2022/01/10 01:32:09;;;;;;;36.23;25.03;;;;;;;;;;5097088;28;20210;-83
2022/01/10 01:34:36;;;;;;;30.43;21.47;;;;;;;;;;5090996;28;20192;-83
2022/01/10 01:37:04;;;;;;;26.10;16.03;;;;;;;;;;5090477;28;20282;-83
2022/01/10 01:39:32;;;;;;;21.90;13.47;;;;;;;;;;5094620;28;20534;-83
2022/01/10 01:42:05;;;;;;;16.63;11.23;;;;;;;;;;5091269;28;20256;-83
2022/01/10 01:44:32;;;;;;;21.67;12.77;;;;;;;;;;5090743;28;20254;-83
2022/01/10 01:47:02;;;;;;;20.07;12.37;;;;;;;;;;5091628;28;20294;-84
2022/01/10 01:49:30;;;;;;;27.97;11.80;;;;;;;;;;5102460;28;20288;-84
2022/01/10 01:51:57;;;;;;;24.50;15.20;;;;;;;;;;5108159;28;20293;-84
2022/01/10 01:54:24;;;;;;;16.93;12.00;;;;;;;;;;5091580;28;20227;-84
2022/01/10 01:56:53;;;;;;;17.97;11.07;;;;;;;;;;5089931;28;20303;-83
2022/01/10 01:59:20;;;;;;;30.47;11.47;;;;;;;;;;5088599;28;20315;-84
2022/01/10 02:01:47;;;;;;;45.50;20.77;;;;;;;;;;5092558;28;20273;-84
2022/01/10 02:04:16;;;;;;;28.10;16.07;;;;;;;;;;5090253;28;20289;-84
2022/01/10 02:06:43;;;;;;;26.73;14.83;;;;;;;;;;5092464;28;20290;-84
2022/01/10 02:09:14;;;;;;;26.60;15.07;;;;;;;;;;5099326;28;20645;-84
2022/01/10 02:11:41;;;;;;;18.57;10.03;;;;;;;;;;5090819;28;20675;-83
2022/01/10 02:14:09;;;;;;;35.07;19.67;;;;;;;;;;5090090;28;20721;-83
2022/01/10 02:16:42;;;;;;;21.40;14.77;;;;;;;;;;5086566;28;20238;-83
2022/01/10 02:19:10;;;;;;;35.87;22.13;;;;;;;;;;5097125;28;20283;-83
2022/01/10 02:21:39;;;;;;;33.47;18.77;;;;;;;;;;5091084;28;20194;-83
2022/01/10 02:24:07;;;;;;;48.97;26.73;;;;;;;;;;5085725;28;20290;-83
2022/01/10 02:26:37;;;;;;;25.13;13.27;;;;;;;;;;5091081;28;20209;-83
2022/01/10 02:29:04;;;;;;;25.77;14.43;;;;;;;;;;5091371;28;20200;-83
2022/01/10 02:31:35;;;;;;;13.93;8.83;;;;;;;;;;5094064;28;20749;-83
2022/01/10 02:34:02;;;;;;;13.87;8.43;;;;;;;;;;5090561;28;20203;-83
2022/01/10 02:36:30;;;;;;;11.63;8.37;;;;;;;;;;5102624;28;20229;-82
2022/01/10 02:39:00;;;;;;;14.87;8.27;;;;;;;;;;5104596;28;20249;-83
2022/01/10 02:41:29;;;;;;;18.33;7.67;;;;;;;;;;5097544;28;20206;-82
2022/01/10 02:43:57;;;;;;;12.03;7.43;;;;;;;;;;5094541;28;20313;-82
2022/01/10 02:46:24;;;;;;;13.87;7.93;;;;;;;;;;5094500;28;20226;-83
2022/01/10 02:48:52;;;;;;;15.77;7.30;;;;;;;;;;5100612;28;20277;-83
2022/01/10 02:51:20;;;;;;;13.90;5.77;;;;;;;;;;5094386;28;20298;-83
2022/01/10 02:53:47;;;;;;;13.13;5.77;;;;;;;;;;5094298;28;20231;-83
2022/01/10 02:56:16;;;;;;;11.80;5.73;;;;;;;;;;5094390;28;20301;-83
2022/01/10 02:58:43;;;;;;;11.23;6.07;;;;;;;;;;5093574;28;20305;-83
2022/01/10 03:01:10;;;;;;;9.00;6.17;;;;;;;;;;5094400;28;20229;-83
2022/01/10 03:03:38;;;;;;;11.70;5.30;;;;;;;;;;5094031;28;20369;-83
2022/01/10 03:06:05;;;;;;;33.43;16.07;;;;;;;;;;5093772;28;20194;-83
2022/01/10 03:08:33;;;;;;;13.67;7.00;;;;;;;;;;5093829;28;20285;-83
2022/01/10 03:11:01;;;;;;;11.73;6.37;;;;;;;;;;5093671;28;20204;-83
2022/01/10 03:13:29;;;;;;;17.73;6.60;;;;;;;;;;5093679;28;20282;-83
2022/01/10 03:15:57;;;;;;;14.93;7.07;;;;;;;;;;5093491;28;20666;-83
2022/01/10 03:18:24;;;;;;;20.77;9.67;;;;;;;;;;5097539;28;20229;-83
2022/01/10 03:20:51;;;;;;;20.57;9.13;;;;;;;;;;5094623;28;20709;-84
2022/01/10 03:23:18;;;;;;;21.53;10.10;;;;;;;;;;5093940;28;20289;-83
2022/01/10 03:25:46;;;;;;;15.77;8.47;;;;;;;;;;5093902;28;20281;-83
2022/01/10 03:28:15;;;;;;;10.57;6.37;;;;;;;;;;5093549;28;20277;-83
2022/01/10 03:30:43;;;;;;;19.60;10.70;;;;;;;;;;5097851;28;20242;-83
2022/01/10 03:33:11;;;;;;;15.30;8.70;;;;;;;;;;5098697;28;20226;-83
2022/01/10 03:35:39;;;;;;;24.70;12.70;;;;;;;;;;5092865;28;20201;-83
2022/01/10 03:38:06;;;;;;;12.60;7.80;;;;;;;;;;5092439;28;20287;-83
2022/01/10 03:40:34;;;;;;;16.73;10.10;;;;;;;;;;5093245;28;20734;-83
2022/01/10 03:43:01;;;;;;;13.40;7.87;;;;;;;;;;5092902;28;20302;-82
2022/01/10 03:45:28;;;;;;;14.00;8.63;;;;;;;;;;5093186;28;20281;-82
2022/01/10 03:47:57;;;;;;;67.00;36.43;;;;;;;;;;5092865;28;20274;-82
2022/01/10 03:50:24;;;;;;;50.17;29.57;;;;;;;;;;5091567;28;20672;-82
2022/01/10 03:52:51;;;;;;;17.20;9.13;;;;;;;;;;5100693;28;20225;-82
2022/01/10 03:55:19;;;;;;;15.83;8.20;;;;;;;;;;5094950;28;20282;-82
2022/01/10 03:57:46;;;;;;;13.73;8.40;;;;;;;;;;5091532;28;20218;-82
2022/01/10 04:00:14;;;;;;;34.07;14.10;;;;;;;;;;5092836;28;20364;-82
2022/01/10 04:02:45;;;;;;;17.37;9.73;;;;;;;;;;5092863;28;20202;-83
2022/01/10 04:05:13;;;;;;;15.67;8.90;;;;;;;;;;5093472;28;20198;-82
2022/01/10 04:07:41;;;;;;;12.03;8.10;;;;;;;;;;5091913;28;20279;-83
2022/01/10 04:10:08;;;;;;;14.23;8.40;;;;;;;;;;5087440;28;20313;-83
2022/01/10 04:12:36;;;;;;;13.70;8.40;;;;;;;;;;5091900;28;20343;-82
2022/01/10 04:15:04;;;;;;;19.37;9.90;;;;;;;;;;5094513;28;20728;-82
2022/01/10 04:17:31;;;;;;;14.77;9.50;;;;;;;;;;5094466;28;20205;-82
2022/01/10 04:19:59;;;;;;;24.27;17.47;;;;;;;;;;5092509;28;20304;-82
2022/01/10 04:22:28;;;;;;;24.57;15.80;;;;;;;;;;5092049;28;20639;-82
2022/01/10 04:24:55;;;;;;;16.67;10.97;;;;;;;;;;5092908;28;20230;-82
2022/01/10 04:27:22;;;;;;;15.23;9.27;;;;;;;;;;5097517;28;20694;-83
2022/01/10 04:29:50;;;;;;;16.20;9.60;;;;;;;;;;5091370;28;20622;-82
2022/01/10 04:32:17;;;;;;;14.80;9.53;;;;;;;;;;5092169;28;20281;-82
2022/01/10 04:34:47;;;;;;;15.57;8.87;;;;;;;;;;5091481;28;20234;-82
2022/01/10 04:37:14;;;;;;;17.70;9.47;;;;;;;;;;5098886;28;20212;-83
2022/01/10 04:39:43;;;;;;;14.03;8.93;;;;;;;;;;5091701;28;20306;-83
2022/01/10 04:42:10;;;;;;;14.17;9.03;;;;;;;;;;5092092;28;20289;-83
2022/01/10 04:44:38;;;;;;;14.33;9.57;;;;;;;;;;5092025;28;20258;-82
2022/01/10 04:47:05;;;;;;;15.80;9.80;;;;;;;;;;5092707;28;20239;-82
2022/01/10 04:49:47;;;;;;;16.43;9.10;;;;;;;;;;5096570;28;20753;-82
2022/01/10 04:52:15;;;;;;;13.70;8.90;;;;;;;;;;5081905;28;20225;-82
2022/01/10 04:54:43;;;;;;;12.20;7.83;;;;;;;;;;5096311;28;20297;-82
2022/01/10 04:57:11;;;;;;;13.17;7.60;;;;;;;;;;5094277;28;20282;-83
2022/01/10 04:59:38;;;;;;;12.33;7.23;;;;;;;;;;5092111;28;20298;-83
2022/01/10 05:02:05;;;;;;;8.63;6.30;;;;;;;;;;5090314;28;20297;-83
2022/01/10 05:04:32;;;;;;;9.63;6.37;;;;;;;;;;5092059;28;20213;-83
2022/01/10 05:07:00;;;;;;;9.73;6.47;;;;;;;;;;5091142;28;20624;-84
2022/01/10 05:09:27;;;;;;;8.80;6.33;;;;;;;;;;5098556;28;20277;-83
2022/01/10 05:11:56;;;;;;;11.17;6.87;;;;;;;;;;5092437;28;20274;-83
2022/01/10 05:14:23;;;;;;;11.70;6.50;;;;;;;;;;5091401;28;20678;-83
2022/01/10 05:16:51;;;;;;;8.40;5.87;;;;;;;;;;5091189;28;20348;-84
2022/01/10 05:19:19;;;;;;;10.10;6.47;;;;;;;;;;5091192;28;20314;-84
2022/01/10 05:21:46;;;;;;;9.50;6.40;;;;;;;;;;5091453;28;20671;-84
2022/01/10 05:24:14;;;;;;;9.13;6.57;;;;;;;;;;5091006;28;20229;-84
2022/01/10 05:26:41;;;;;;;9.10;5.57;;;;;;;;;;5091006;28;20285;-84
2022/01/10 05:29:10;;;;;;;10.20;5.90;;;;;;;;;;5092283;28;20277;-84
2022/01/10 05:31:37;;;;;;;9.17;5.77;;;;;;;;;;5091058;28;20322;-84
2022/01/10 05:34:04;;;;;;;9.47;6.00;;;;;;;;;;5091533;28;20202;-84
2022/01/10 05:36:31;;;;;;;8.97;5.70;;;;;;;;;;5090770;28;20293;-84
2022/01/10 05:38:58;;;;;;;8.57;6.00;;;;;;;;;;5090836;28;20189;-84
2022/01/10 05:41:26;;;;;;;8.63;5.77;;;;;;;;;;5090614;28;20218;-84
2022/01/10 05:43:55;;;;;;;11.27;6.17;;;;;;;;;;5090277;28;20751;-83
2022/01/10 05:46:24;;;;;;;9.13;6.03;;;;;;;;;;5090454;28;20206;-84
2022/01/10 05:48:53;;;;;;;9.43;6.20;;;;;;;;;;5087058;28;20289;-84
2022/01/10 05:51:21;;;;;;;9.50;6.17;;;;;;;;;;5087618;28;20206;-84
2022/01/10 05:53:48;;;;;;;10.27;6.30;;;;;;;;;;5090569;28;20221;-84
2022/01/10 05:56:15;;;;;;;10.10;6.10;;;;;;;;;;5090952;28;20268;-84
2022/01/10 05:58:43;;;;;;;8.53;6.23;;;;;;;;;;5094127;28;20200;-84
2022/01/10 06:01:10;;;;;;;9.93;6.37;;;;;;;;;;5091671;28;20301;-84
2022/01/10 06:03:38;;;;;;;11.00;6.97;;;;;;;;;;5090169;28;20300;-89
2022/01/10 06:06:06;;;;;;;9.70;7.10;;;;;;;;;;5091540;28;20633;-88
2022/01/10 06:08:33;;;;;;;13.00;7.47;;;;;;;;;;5090214;28;20277;-87
2022/01/10 06:11:00;;;;;;;11.67;8.17;;;;;;;;;;5091177;28;20279;-87
2022/01/10 06:13:27;;;;;;;12.43;7.80;;;;;;;;;;5092048;28;20220;-87
2022/01/10 06:15:55;;;;;;;14.97;11.30;;;;;;;;;;5094446;28;20231;-86
2022/01/10 06:18:22;;;;;;;14.20;9.23;;;;;;;;;;5097805;28;20643;-86
2022/01/10 06:20:51;;;;;;;13.67;9.13;;;;;;;;;;5095566;28;20301;-90
2022/01/10 06:23:18;;;;;;;13.97;8.87;;;;;;;;;;5095615;28;20247;-90
2022/01/10 06:25:45;;;;;;;12.73;7.97;;;;;;;;;;5094556;28;20685;-88
2022/01/10 06:28:13;;;;;;;11.73;8.20;;;;;;;;;;5094470;28;20230;-86
2022/01/10 06:30:40;;;;;;;13.43;8.03;;;;;;;;;;5095278;28;20281;-87
2022/01/10 06:33:07;;;;;;;11.23;7.50;;;;;;;;;;5099258;28;20248;-88
2022/01/10 06:35:35;;;;;;;13.10;8.30;;;;;;;;;;5098688;28;20283;-87
2022/01/10 06:38:04;;;;;;;11.23;8.33;;;;;;;;;;5107522;28;20285;-88
2022/01/10 06:40:31;;;;;;;13.23;10.03;;;;;;;;;;5093107;28;20250;-88
2022/01/10 06:42:58;;;;;;;13.53;10.00;;;;;;;;;;5095046;28;20316;-89
2022/01/10 06:45:26;;;;;;;14.73;9.97;;;;;;;;;;5098726;28;20233;-87
2022/01/10 06:47:53;;;;;;;14.93;9.90;;;;;;;;;;5088524;28;20280;-88
2022/01/10 06:50:21;;;;;;;14.23;10.30;;;;;;;;;;5091544;28;20296;-88
2022/01/10 06:52:50;;;;;;;13.67;9.87;;;;;;;;;;5091663;28;20293;-87
2022/01/10 06:55:19;;;;;;;16.10;10.23;;;;;;;;;;5092901;28;20285;-87
2022/01/10 06:57:46;;;;;;;15.67;10.87;;;;;;;;;;5091954;28;20214;-86
2022/01/10 07:00:14;;;;;;;16.67;9.77;;;;;;;;;;5090168;28;20329;-87
2022/01/10 07:02:43;;;;;;;16.17;10.10;;;;;;;;;;5092988;28;20285;-87
2022/01/10 07:05:10;;;;;;;13.23;9.57;;;;;;;;;;5093732;28;20216;-87
2022/01/10 07:07:38;;;;;;;14.80;9.07;;;;;;;;;;5088905;28;20620;-86
2022/01/10 07:10:05;;;;;;;14.50;9.57;;;;;;;;;;5091176;28;20884;-86
2022/01/10 07:12:34;;;;;;;16.67;10.20;;;;;;;;;;5092981;28;20229;-87
2022/01/10 07:15:01;;;;;;;17.60;10.60;;;;;;;;;;5096766;28;20303;-87
2022/01/10 07:17:29;;;;;;;20.57;13.33;;;;;;;;;;5106026;28;20336;-86
2022/01/10 07:19:57;;;;;;;22.07;13.10;;;;;;;;;;5092361;28;20646;-87
2022/01/10 07:22:24;;;;;;;20.77;12.60;;;;;;;;;;5094281;28;20286;-87
2022/01/10 07:24:51;;;;;;;18.63;12.67;;;;;;;;;;5092130;28;20289;-88
2022/01/10 07:27:18;;;;;;;21.10;12.70;;;;;;;;;;5093935;28;20282;-88
2022/01/10 07:29:49;;;;;;;20.83;12.03;;;;;;;;;;5093993;28;20222;-87
2022/01/10 07:32:17;;;;;;;17.13;11.57;;;;;;;;;;5094122;28;20195;-86
2022/01/10 07:34:45;;;;;;;18.53;10.57;;;;;;;;;;5093019;28;20242;-87
2022/01/10 07:37:12;;;;;;;15.23;9.00;;;;;;;;;;5093335;28;20279;-87
2022/01/10 07:39:40;;;;;;;14.43;8.83;;;;;;;;;;5093162;28;20281;-87
2022/01/10 07:42:07;;;;;;;11.60;8.43;;;;;;;;;;5094004;28;20289;-86
2022/01/10 07:44:35;;;;;;;12.53;8.77;;;;;;;;;;5093576;28;20317;-86
2022/01/10 07:47:04;;;;;;;13.67;8.47;;;;;;;;;;5094937;28;20230;-85
2022/01/10 07:49:31;;;;;;;12.53;8.07;;;;;;;;;;5095159;28;20703;-87
2022/01/10 07:51:59;;;;;;;11.97;7.67;;;;;;;;;;5094361;28;20209;-86
2022/01/10 07:54:26;;;;;;;12.07;7.33;;;;;;;;;;5093939;28;20250;-86
2022/01/10 07:56:53;;;;;;;12.63;7.90;;;;;;;;;;5093276;28;20238;-85
2022/01/10 07:59:21;;;;;;;16.70;8.63;;;;;;;;;;5093876;28;20226;-86
2022/01/10 08:01:49;;;;;;;18.23;9.40;;;;;;;;;;5093443;28;20218;-86
2022/01/10 08:04:17;;;;;;;18.40;9.80;;;;;;;;;;5093829;28;20218;-85
2022/01/10 08:06:45;;;;;;;15.33;9.90;;;;;;;;;;5093384;28;20303;-86
2022/01/10 08:09:12;;;;;;;13.20;9.03;;;;;;;;;;5093284;28;20234;-85
2022/01/10 08:11:39;;;;;;;18.10;11.83;;;;;;;;;;5093836;28;20661;-86
2022/01/10 08:14:06;;;;;;;18.87;13.40;;;;;;;;;;5093768;28;20230;-86
2022/01/10 08:16:34;;;;;;;26.40;18.57;;;;;;;;;;5093656;28;20240;-87
2022/01/10 08:19:02;;;;;;;23.70;17.27;;;;;;;;;;5093793;28;20368;-86
2022/01/10 08:21:31;;;;;;;17.97;13.70;;;;;;;;;;5093057;28;20361;-86
2022/01/10 08:23:58;;;;;;;15.33;10.77;;;;;;;;;;5092817;28;20243;-86
2022/01/10 08:26:25;;;;;;;15.20;10.07;;;;;;;;;;5093095;28;20201;-87
2022/01/10 08:28:53;;;;;;;15.97;10.60;;;;;;;;;;5092688;28;20226;-86
2022/01/10 08:31:20;;;;;;;19.90;15.30;;;;;;;;;;5092591;28;20281;-85
2022/01/10 08:33:48;;;;;;;20.40;16.63;;;;;;;;;;5092770;28;20608;-86
2022/01/10 08:36:15;;;;;;;34.27;28.17;;;;;;;;;;5102358;28;20220;-85
2022/01/10 08:38:44;;;;;;;16.27;13.07;;;;;;;;;;5094174;28;20670;-85
2022/01/10 08:41:11;;;;;;;16.90;10.67;;;;;;;;;;5093175;28;20699;-85
2022/01/10 08:43:39;;;;;;;16.33;9.80;;;;;;;;;;5092500;28;20262;-85
2022/01/10 08:46:06;;;;;;;17.33;11.40;;;;;;;;;;5092607;28;20225;-85
2022/01/10 08:48:33;;;;;;;16.50;10.50;;;;;;;;;;5096582;28;20281;-85
2022/01/10 08:51:01;;;;;;;19.30;11.80;;;;;;;;;;5092868;28;20624;-85
2022/01/10 08:53:28;;;;;;;17.40;11.20;;;;;;;;;;5091925;28;20292;-85
2022/01/10 08:55:57;;;;;;;17.03;11.80;;;;;;;;;;5091888;28;20236;-84
2022/01/10 08:58:26;;;;;;;20.23;13.90;;;;;;;;;;5092204;28;20285;-85
2022/01/10 09:00:53;;;;;;;19.47;13.37;;;;;;;;;;5091495;28;20219;-85
2022/01/10 09:03:21;;;;;;;19.63;11.70;;;;;;;;;;5093386;28;20560;-85
2022/01/10 09:05:49;;;;;;;17.87;10.90;;;;;;;;;;5091100;28;20231;-86
2022/01/10 09:08:17;;;;;;;17.40;12.13;;;;;;;;;;5090048;28;20259;-86
2022/01/10 09:10:44;;;;;;;15.63;10.83;;;;;;;;;;5091047;28;20628;-86
2022/01/10 09:13:12;;;;;;;15.27;9.83;;;;;;;;;;5104297;28;20203;-86
2022/01/10 09:15:40;;;;;;;12.57;8.50;;;;;;;;;;5095449;28;20617;-86
2022/01/10 09:18:07;;;;;;;12.13;8.13;;;;;;;;;;5091504;28;20653;-86
2022/01/10 09:20:35;;;;;;;11.93;7.63;;;;;;;;;;5091582;28;20712;-85
2022/01/10 09:23:02;;;;;;;10.47;6.57;;;;;;;;;;5090946;28;20278;-86
2022/01/10 09:25:29;;;;;;;10.87;7.17;;;;;;;;;;5090302;28;20273;-87
2022/01/10 09:27:56;;;;;;;10.70;7.50;;;;;;;;;;5091595;28;20270;-86
2022/01/10 09:30:25;;;;;;;11.37;8.07;;;;;;;;;;5090530;28;20240;-86
2022/01/10 09:32:54;;;;;;;12.90;8.00;;;;;;;;;;5091052;28;20285;-86
2022/01/10 09:35:22;;;;;;;12.07;7.43;;;;;;;;;;5090741;28;20205;-86
2022/01/10 09:37:49;;;;;;;11.80;7.20;;;;;;;;;;5091321;28;20293;-86
2022/01/10 09:40:18;;;;;;;11.77;7.47;;;;;;;;;;5090782;28;20286;-85
2022/01/10 09:42:45;;;;;;;9.23;5.90;;;;;;;;;;5091480;28;20206;-85
2022/01/10 09:45:13;;;;;;;12.30;7.27;;;;;;;;;;5095281;28;20257;-85
2022/01/10 09:47:42;;;;;;;14.30;8.07;;;;;;;;;;5090491;28;20285;-85
2022/01/10 09:50:10;;;;;;;12.50;6.70;;;;;;;;;;5092157;28;20675;-85
2022/01/10 09:52:38;;;;;;;12.20;6.90;;;;;;;;;;5090224;28;20343;-85
2022/01/10 09:55:05;;;;;;;9.67;6.10;;;;;;;;;;5090810;28;20230;-86
2022/01/10 09:57:33;;;;;;;8.60;5.70;;;;;;;;;;5091067;28;20304;-85
2022/01/10 10:00:00;;;;;;;8.53;5.70;;;;;;;;;;5091662;28;20282;-85
2022/01/10 10:02:31;;;;;;;10.37;5.83;;;;;;;;;;5091049;28;20219;-85
2022/01/10 10:05:01;;;;;;;9.33;5.17;;;;;;;;;;5091499;28;20247;-85
2022/01/10 10:07:29;;;;;;;10.77;5.83;;;;;;;;;;5091290;28;20277;-86
2022/01/10 10:09:58;;;;;;;8.17;5.20;;;;;;;;;;5091324;28;20286;-85
2022/01/10 10:12:29;;;;;;;6.97;4.40;;;;;;;;;;5091184;28;20734;-85
2022/01/10 10:14:57;;;;;;;5.03;4.43;;;;;;;;;;5089915;28;20209;-85
2022/01/10 10:17:24;;;;;;;7.60;4.47;;;;;;;;;;5091056;28;20205;-85
2022/01/10 10:19:51;;;;;;;10.27;4.77;;;;;;;;;;5092036;28;20233;-85
2022/01/10 10:22:20;;;;;;;6.77;3.90;;;;;;;;;;5094474;28;20321;-85
2022/01/10 10:24:48;;;;;;;7.43;4.57;;;;;;;;;;5092937;28;20205;-85
2022/01/10 10:27:17;;;;;;;10.70;4.93;;;;;;;;;;5089613;28;20232;-85
2022/01/10 10:29:45;;;;;;;6.57;4.43;;;;;;;;;;5089509;28;20197;-85
2022/01/10 10:32:15;;;;;;;8.37;5.00;;;;;;;;;;5091107;28;20260;-86
2022/01/10 10:34:43;;;;;;;9.83;5.33;;;;;;;;;;5092291;28;20199;-86
2022/01/10 10:37:11;;;;;;;6.90;4.83;;;;;;;;;;5095228;28;20287;-85
2022/01/10 10:39:41;;;;;;;7.30;4.57;;;;;;;;;;5086690;28;20222;-85
2022/01/10 10:42:09;;;;;;;5.80;4.43;;;;;;;;;;5089633;28;20249;-85
2022/01/10 10:44:37;;;;;;;6.47;4.47;;;;;;;;;;5091114;28;20679;-86
2022/01/10 10:47:05;;;;;;;10.60;4.53;;;;;;;;;;5089744;28;20285;-85
2022/01/10 10:49:35;;;;;;;8.43;5.10;;;;;;;;;;5092178;28;20207;-86
2022/01/10 10:52:03;;;;;;;8.03;5.23;;;;;;;;;;5089253;28;20195;-86
2022/01/10 10:54:32;;;;;;;8.63;5.50;;;;;;;;;;5090666;28;20219;-86
2022/01/10 10:57:02;;;;;;;8.80;5.30;;;;;;;;;;5089815;28;20264;-86
2022/01/10 10:59:31;;;;;;;6.73;5.50;;;;;;;;;;5091257;28;20745;-86
2022/01/10 11:02:00;;;;;;;9.47;7.00;;;;;;;;;;5092658;28;20224;-86
2022/01/10 11:04:27;;;;;;;8.07;5.47;;;;;;;;;;5093352;28;20255;-86
2022/01/10 11:06:54;;;;;;;7.33;5.10;;;;;;;;;;5100092;28;20582;-87
2022/01/10 11:09:23;;;;;;;9.40;6.37;;;;;;;;;;5098762;28;20823;-85
2022/01/10 11:11:51;;;;;;;8.93;6.00;;;;;;;;;;5094729;28;20273;-85
2022/01/10 11:14:22;;;;;;;9.67;6.33;;;;;;;;;;5094635;28;20292;-85
2022/01/10 11:16:52;;;;;;;9.53;6.80;;;;;;;;;;5093639;28;20614;-86
2022/01/10 11:19:21;;;;;;;8.80;5.70;;;;;;;;;;5092873;28;20202;-85
2022/01/10 11:21:57;;;;;;;8.03;5.97;;;;;;;;;;5093741;28;20244;-86
2022/01/10 11:24:43;;;;;;;8.77;5.23;;;;;;;;;;5093255;28;20288;-85
2022/01/10 11:27:28;;;;;;;7.77;5.73;;;;;;;;;;5093777;28;20244;-85
2022/01/10 11:29:57;;;;;;;6.73;5.47;;;;;;;;;;5090722;28;20218;-85
2022/01/10 11:32:50;;;;;;;6.93;5.83;;;;;;;;;;5093021;28;20248;-86
2022/01/10 11:35:17;;;;;;;6.73;5.30;;;;;;;;;;5093291;28;20281;-86
2022/01/10 11:37:44;;;;;;;9.17;5.63;;;;;;;;;;5094351;28;20294;-86
2022/01/10 11:40:13;;;;;;;7.47;5.53;;;;;;;;;;5111505;28;20285;-86
2022/01/10 11:42:44;;;;;;;7.07;5.20;;;;;;;;;;5092609;28;20674;-86
2022/01/10 11:45:15;;;;;;;6.00;5.07;;;;;;;;;;5093150;28;20230;-87
2022/01/10 11:48:06;;;;;;;8.77;6.10;;;;;;;;;;5091498;28;20678;-87
2022/01/10 11:50:34;;;;;;;6.73;5.10;;;;;;;;;;5073771;28;20289;-86
2022/01/10 11:53:02;;;;;;;7.57;5.20;;;;;;;;;;5093304;28;20281;-86
2022/01/10 11:55:32;;;;;;;6.93;5.33;;;;;;;;;;5099254;28;20225;-87
2022/01/10 11:58:04;;;;;;;7.57;5.33;;;;;;;;;;5092893;28;20631;-87
2022/01/10 12:00:37;;;;;;;7.73;5.97;;;;;;;;;;5093217;28;20226;-87
2022/01/10 12:03:05;;;;;;;8.87;6.83;;;;;;;;;;5092897;28;20834;-86
2022/01/10 12:05:32;;;;;;;8.43;6.50;;;;;;;;;;5093275;28;20226;-87
2022/01/10 12:08:00;;;;;;;7.53;5.70;;;;;;;;;;5092628;28;20222;-87
2022/01/10 12:10:28;;;;;;;7.00;5.17;;;;;;;;;;5092461;28;20285;-86
2022/01/10 12:13:02;;;;;;;7.07;5.23;;;;;;;;;;5092229;28;20667;-86
2022/01/10 12:15:31;;;;;;;7.67;6.20;;;;;;;;;;5093210;28;20190;-86
2022/01/10 12:18:00;;;;;;;8.53;6.33;;;;;;;;;;5089262;28;20290;-86
2022/01/10 12:20:27;;;;;;;7.30;6.13;;;;;;;;;;5092928;28;20285;-86
2022/01/10 12:22:55;;;;;;;7.27;5.47;;;;;;;;;;5092867;28;20250;-86
2022/01/10 12:25:22;;;;;;;7.40;5.97;;;;;;;;;;5092955;28;20686;-88
2022/01/10 12:27:51;;;;;;;7.90;6.03;;;;;;;;;;5091825;28;20198;-87
2022/01/10 12:30:20;;;;;;;8.30;6.23;;;;;;;;;;5092319;28;20236;-89
2022/01/10 12:32:47;;;;;;;6.80;5.60;;;;;;;;;;5092723;28;21553;-87
2022/01/10 12:35:17;;;;;;;7.87;6.03;;;;;;;;;;5086523;28;20234;-87
2022/01/10 12:37:44;;;;;;;7.97;5.80;;;;;;;;;;5093072;28;20197;-88
2022/01/10 12:40:13;;;;;;;8.73;6.07;;;;;;;;;;5092092;28;20281;-88
2022/01/10 12:42:41;;;;;;;6.73;5.17;;;;;;;;;;5092197;28;20309;-88
2022/01/10 12:45:08;;;;;;;7.27;5.37;;;;;;;;;;5091900;28;20225;-88
2022/01/10 12:47:35;;;;;;;9.33;5.70;;;;;;;;;;5092331;28;20200;-88
2022/01/10 12:50:03;;;;;;;7.03;5.10;;;;;;;;;;5092185;28;20284;-88
2022/01/10 12:52:32;;;;;;;6.33;4.63;;;;;;;;;;5091087;28;20293;-87
2022/01/10 12:54:59;;;;;;;6.10;4.33;;;;;;;;;;5098338;28;20298;-87
2022/01/10 12:57:26;;;;;;;7.07;6.00;;;;;;;;;;5093892;28;20310;-87
2022/01/10 12:59:56;;;;;;;11.93;8.90;;;;;;;;;;5091972;28;20237;-88
2022/01/10 13:02:24;;;;;;;8.60;6.47;;;;;;;;;;5092235;28;20229;-87
2022/01/10 13:04:51;;;;;;;9.03;6.27;;;;;;;;;;5092445;28;20681;-87
2022/01/10 13:07:18;;;;;;;9.60;5.63;;;;;;;;;;5097268;28;20281;-86
2022/01/10 13:09:49;;;;;;;9.93;6.87;;;;;;;;;;5094497;28;20277;-88
2022/01/10 13:12:26;;;;;;;15.33;8.07;;;;;;;;;;5092109;28;20227;-88
2022/01/10 13:14:53;;;;;;;10.67;7.90;;;;;;;;;;5087627;28;20222;-87
2022/01/10 13:17:24;;;;;;;12.83;8.27;;;;;;;;;;5096128;28;20281;-88
2022/01/10 13:20:00;;;;;;;14.00;8.67;;;;;;;;;;5092162;28;20280;-87
2022/01/10 13:22:32;;;;;;;12.00;8.00;;;;;;;;;;5088295;28;20221;-87
2022/01/10 13:25:02;;;;;;;13.67;9.00;;;;;;;;;;5071571;28;20751;-88
2022/01/10 13:27:34;;;;;;;16.40;9.47;;;;;;;;;;5087354;28;20233;-88
2022/01/10 13:30:12;;;;;;;14.27;9.20;;;;;;;;;;5100132;28;20225;-87
2022/01/10 13:32:41;;;;;;;12.87;8.43;;;;;;;;;;5093562;28;20201;-87
2022/01/10 13:35:16;;;;;;;11.07;7.70;;;;;;;;;;5091571;28;20191;-88
2022/01/10 13:37:44;;;;;;;10.87;7.50;;;;;;;;;;5091056;28;20199;-88
2022/01/10 13:40:15;;;;;;;11.27;7.43;;;;;;;;;;5093043;28;20222;-88
2022/01/10 13:42:46;;;;;;;10.07;6.90;;;;;;;;;;5091797;28;20331;-88
2022/01/10 13:45:14;;;;;;;8.60;6.83;;;;;;;;;;5083234;28;20732;-87
2022/01/10 13:48:00;;;;;;;9.60;6.60;;;;;;;;;;5091336;28;20247;-88
2022/01/10 13:50:29;;;;;;;10.33;6.67;;;;;;;;;;5095213;28;20285;-87
2022/01/10 13:53:10;;;;;;;8.43;6.73;;;;;;;;;;5091035;28;20276;-86
2022/01/10 13:55:39;;;;;;;8.30;6.17;;;;;;;;;;5091254;28;20647;-86
2022/01/10 13:58:08;;;;;;;8.30;6.43;;;;;;;;;;5089847;28;20285;-86
2022/01/10 14:00:38;;;;;;;8.50;6.17;;;;;;;;;;5092881;28;20226;-86
2022/01/10 14:03:05;;;;;;;8.87;6.23;;;;;;;;;;5090857;28;20304;-86
2022/01/10 14:05:33;;;;;;;9.87;6.10;;;;;;;;;;5092997;28;20280;-86
2022/01/10 14:08:02;;;;;;;8.37;5.83;;;;;;;;;;5093297;28;20289;-85
2022/01/10 14:10:30;;;;;;;7.77;6.23;;;;;;;;;;5091756;28;20199;-86
2022/01/10 14:12:59;;;;;;;8.33;6.07;;;;;;;;;;5091035;28;20362;-86
2022/01/10 14:15:28;;;;;;;8.70;6.40;;;;;;;;;;5091169;28;20194;-86
2022/01/10 14:17:55;;;;;;;9.33;6.17;;;;;;;;;;5090574;28;20225;-86
2022/01/10 14:20:23;;;;;;;10.30;6.23;;;;;;;;;;5091088;28;20194;-87
2022/01/10 14:22:52;;;;;;;8.23;6.43;;;;;;;;;;5090494;28;21569;-86
2022/01/10 14:25:22;;;;;;;11.23;6.67;;;;;;;;;;5089896;28;20198;-87
2022/01/10 14:27:49;;;;;;;9.90;6.80;;;;;;;;;;5090600;28;20229;-87
2022/01/10 14:30:19;;;;;;;9.07;6.13;;;;;;;;;;5093408;28;20548;-85
2022/01/10 14:32:49;;;;;;;8.30;6.10;;;;;;;;;;5090677;28;20217;-86
2022/01/10 14:35:16;;;;;;;9.63;6.87;;;;;;;;;;5092995;28;20198;-85
2022/01/10 14:37:44;;;;;;;8.57;5.77;;;;;;;;;;5095186;28;20214;-85
2022/01/10 14:40:11;;;;;;;9.40;6.70;;;;;;;;;;5096031;28;20281;-85
2022/01/10 14:42:39;;;;;;;9.17;6.33;;;;;;;;;;5093740;28;20314;-85
2022/01/10 14:45:07;;;;;;;9.83;6.93;;;;;;;;;;5094629;28;20264;-85